createdAt,value
2018-07-14T00:00:27.917Z,53.81
2018-07-14T00:01:27.937Z,54.02
2018-07-14T00:02:27.917Z,54.41
2018-07-14T00:03:27.915Z,54.22
2018-07-14T00:04:27.933Z,54.02
2018-07-14T00:05:27.916Z,54.11
2018-07-14T00:06:27.921Z,54.11
2018-07-14T00:07:27.937Z,53.81
2018-07-14T00:08:27.936Z,53.92
2018-07-14T00:09:27.945Z,54.64
2018-07-14T00:10:27.917Z,54.11
2018-07-14T00:11:27.929Z,54.44
2018-07-14T00:12:27.962Z,54.52
2018-07-14T00:13:27.930Z,54.52
2018-07-14T00:14:27.945Z,54.24
2018-07-14T00:15:27.934Z,54.11
2018-07-14T00:16:27.941Z,54.34
2018-07-14T00:17:27.932Z,54.24
2018-07-14T00:18:27.940Z,54.32
2018-07-14T00:19:33.008Z,54.34
2018-07-14T00:20:27.458Z,54.14
2018-07-14T00:21:25.943Z,54.14
2018-07-14T00:22:27.448Z,54.34
2018-07-14T00:23:27.477Z,54.74
2018-07-14T00:24:27.556Z,54.24
2018-07-14T00:25:27.449Z,54.44
2018-07-14T00:26:27.468Z,54.04
2018-07-14T00:27:27.473Z,54.34
2018-07-14T00:28:27.462Z,54.14
2018-07-14T00:29:27.470Z,54.54
2018-07-14T00:30:27.453Z,54.24
2018-07-14T00:31:27.453Z,54.24
2018-07-14T00:32:26.479Z,54.04
2018-07-14T00:33:27.468Z,54.04
2018-07-14T00:34:27.471Z,54.44
2018-07-14T00:35:27.451Z,54.24
2018-07-14T00:36:28.452Z,54.24
2018-07-14T00:37:27.452Z,54.24
2018-07-14T00:38:27.452Z,54.34
2018-07-14T00:39:27.476Z,54.04
2018-07-14T00:40:27.477Z,54.14
2018-07-14T00:41:32.759Z,54.74
2018-07-14T00:42:27.538Z,54.64
2018-07-14T00:43:27.490Z,54.74
2018-07-14T00:44:27.510Z,54.54
2018-07-14T00:45:27.480Z,54.24
2018-07-14T00:46:27.486Z,54.54
2018-07-14T00:47:27.512Z,54.64
2018-07-14T00:48:27.497Z,54.54
2018-07-14T00:49:27.524Z,54.54
2018-07-14T00:50:27.481Z,54.34
2018-07-14T00:51:27.512Z,55.04
2018-07-14T00:52:27.522Z,54.94
2018-07-14T00:53:27.482Z,54.86
2018-07-14T00:54:27.499Z,54.86
2018-07-14T00:55:27.503Z,54.97
2018-07-14T00:56:27.501Z,54.84
2018-07-14T00:57:27.500Z,54.84
2018-07-14T00:58:27.483Z,54.94
2018-07-14T00:59:27.500Z,54.86
2018-07-14T01:00:25.502Z,54.97
2018-07-14T01:01:26.985Z,54.84
2018-07-14T01:02:26.995Z,54.84
2018-07-14T01:03:27.003Z,55.24
2018-07-14T01:04:27.001Z,55.17
2018-07-14T01:05:26.985Z,55.27
2018-07-14T01:06:26.986Z,55.17
2018-07-14T01:07:26.986Z,55.07
2018-07-14T01:08:32.981Z,55.17
2018-07-14T01:09:27.057Z,54.94
2018-07-14T01:10:27.050Z,55.27
2018-07-14T01:11:26.410Z,55.27
2018-07-14T01:12:27.043Z,55.07
2018-07-14T01:13:27.021Z,54.97
2018-07-14T01:14:27.053Z,54.97
2018-07-14T01:15:27.049Z,54.97
2018-07-14T01:16:27.022Z,55.57
2018-07-14T01:17:27.024Z,55.57
2018-07-14T01:18:27.039Z,55.57
2018-07-14T01:19:27.039Z,55.36
2018-07-14T01:20:27.022Z,55.47
2018-07-14T01:21:27.025Z,55.36
2018-07-14T01:22:27.022Z,55.57
2018-07-14T01:23:27.038Z,55.47
2018-07-14T01:24:27.038Z,55.47
2018-07-14T01:25:27.025Z,55.36
2018-07-14T01:26:27.026Z,55.27
2018-07-14T01:27:27.023Z,56.27
2018-07-14T01:28:27.024Z,55.49
2018-07-14T01:29:27.061Z,55.29
2018-07-14T01:30:27.038Z,56.16
2018-07-14T01:31:27.043Z,55.77
2018-07-14T01:32:27.052Z,55.36
2018-07-14T01:33:27.032Z,55.36
2018-07-14T01:34:27.048Z,55.36
2018-07-14T01:35:27.028Z,55.57
2018-07-14T01:36:27.046Z,55.29
2018-07-14T01:37:27.064Z,55.36
2018-07-14T01:38:27.028Z,56.29
2018-07-14T01:39:27.047Z,56.16
2018-07-14T01:40:27.044Z,56.29
2018-07-14T01:41:27.049Z,56.16
2018-07-14T01:42:27.027Z,56.09
2018-07-14T01:43:27.027Z,55.99
2018-07-14T01:44:26.548Z,55.89
2018-07-14T01:45:26.558Z,55.59
2018-07-14T01:46:26.527Z,55.59
2018-07-14T01:47:26.527Z,55.69
2018-07-14T01:48:26.527Z,55.69
2018-07-14T01:49:26.530Z,55.69
2018-07-14T01:50:24.995Z,55.19
2018-07-14T01:51:26.541Z,55.19
2018-07-14T01:52:26.553Z,55.40
2018-07-14T01:53:26.542Z,55.59
2018-07-14T01:54:26.562Z,55.59
2018-07-14T01:55:26.557Z,55.69
2018-07-14T01:56:26.531Z,56.49
2018-07-14T01:57:26.529Z,56.09
2018-07-14T01:58:26.529Z,55.89
2018-07-14T01:59:26.529Z,56.70
2018-07-14T02:00:26.553Z,56.20
2018-07-14T02:01:24.856Z,56.70
2018-07-14T02:02:26.559Z,56.39
2018-07-14T02:03:26.554Z,56.59
2018-07-14T02:04:26.555Z,56.39
2018-07-14T02:05:26.549Z,56.29
2018-07-14T02:06:26.546Z,56.59
2018-07-14T02:07:26.531Z,56.20
2018-07-14T02:08:26.531Z,56.49
2018-07-14T02:09:26.549Z,56.39
2018-07-14T02:10:26.548Z,56.09
2018-07-14T02:11:26.532Z,55.99
2018-07-14T02:12:26.532Z,55.59
2018-07-14T02:13:26.534Z,55.40
2018-07-14T02:14:27.558Z,55.49
2018-07-14T02:15:26.549Z,55.89
2018-07-14T02:16:26.533Z,55.42
2018-07-14T02:17:26.533Z,55.89
2018-07-14T02:18:26.533Z,55.40
2018-07-14T02:19:26.533Z,55.42
2018-07-14T02:20:26.568Z,55.42
2018-07-14T02:21:26.547Z,55.52
2018-07-14T02:22:26.556Z,55.40
2018-07-14T02:23:26.533Z,55.42
2018-07-14T02:24:26.551Z,55.62
2018-07-14T02:25:26.535Z,55.89
2018-07-14T02:26:26.550Z,56.12
2018-07-14T02:27:26.535Z,56.02
2018-07-14T02:28:26.549Z,56.42
2018-07-14T02:29:26.041Z,56.02
2018-07-14T02:30:27.055Z,56.42
2018-07-14T02:31:26.052Z,55.72
2018-07-14T02:32:26.040Z,56.12
2018-07-14T02:33:26.037Z,56.12
2018-07-14T02:34:26.037Z,56.09
2018-07-14T02:35:24.474Z,56.12
2018-07-14T02:36:26.069Z,56.32
2018-07-14T02:37:26.053Z,56.20
2018-07-14T02:38:26.040Z,56.22
2018-07-14T02:39:26.037Z,56.72
2018-07-14T02:40:26.038Z,56.62
2018-07-14T02:41:26.054Z,56.92
2018-07-14T02:42:26.046Z,57.02
2018-07-14T02:43:26.052Z,56.42
2018-07-14T02:44:26.053Z,56.32
2018-07-14T02:45:26.053Z,56.52
2018-07-14T02:46:26.068Z,57.02
2018-07-14T02:47:26.039Z,57.22
2018-07-14T02:48:26.059Z,57.22
2018-07-14T02:49:26.051Z,56.92
2018-07-14T02:50:26.042Z,56.62
2018-07-14T02:51:26.072Z,56.72
2018-07-14T02:52:26.060Z,56.62
2018-07-14T02:53:26.054Z,56.62
2018-07-14T02:54:26.040Z,56.72
2018-07-14T02:55:26.043Z,57.02
2018-07-14T02:56:26.057Z,56.92
2018-07-14T02:57:26.041Z,57.12
2018-07-14T02:58:26.052Z,56.72
2018-07-14T02:59:26.056Z,56.82
2018-07-14T03:00:26.042Z,56.82
2018-07-14T03:01:26.058Z,57.02
2018-07-14T03:02:26.055Z,56.82
2018-07-14T03:03:27.047Z,57.12
2018-07-14T03:04:26.044Z,57.35
2018-07-14T03:05:26.063Z,56.92
2018-07-14T03:06:26.058Z,57.12
2018-07-14T03:07:26.044Z,57.05
2018-07-14T03:08:26.044Z,57.42
2018-07-14T03:09:26.054Z,57.12
2018-07-14T03:10:26.044Z,57.22
2018-07-14T03:11:26.071Z,57.02
2018-07-14T03:12:26.046Z,57.24
2018-07-14T03:13:26.045Z,57.62
2018-07-14T03:14:24.050Z,57.42
2018-07-14T03:15:25.545Z,57.45
2018-07-14T03:16:25.548Z,57.55
2018-07-14T03:17:25.575Z,58.15
2018-07-14T03:18:25.579Z,58.15
2018-07-14T03:19:25.548Z,57.55
2018-07-14T03:20:25.546Z,57.55
2018-07-14T03:21:25.546Z,57.35
2018-07-14T03:22:25.561Z,57.45
2018-07-14T03:23:25.549Z,57.65
2018-07-14T03:24:25.572Z,57.15
2018-07-14T03:25:25.550Z,57.55
2018-07-14T03:26:25.547Z,57.45
2018-07-14T03:27:25.564Z,57.35
2018-07-14T03:28:25.547Z,57.55
2018-07-14T03:29:25.547Z,57.65
2018-07-14T03:30:25.557Z,57.55
2018-07-14T03:31:25.577Z,57.55
2018-07-14T03:32:25.564Z,57.55
2018-07-14T03:33:25.554Z,57.45
2018-07-14T03:34:25.549Z,57.95
2018-07-14T03:35:25.548Z,57.85
2018-07-14T03:36:25.553Z,57.75
2018-07-14T03:37:25.580Z,57.85
2018-07-14T03:38:25.567Z,57.85
2018-07-14T03:39:25.564Z,57.45
2018-07-14T03:40:25.550Z,57.55
2018-07-14T03:41:25.550Z,58.05
2018-07-14T03:42:23.758Z,57.55
2018-07-14T03:43:25.551Z,57.85
2018-07-14T03:44:25.557Z,58.28
2018-07-14T03:45:25.561Z,58.65
2018-07-14T03:46:25.576Z,58.28
2018-07-14T03:47:25.574Z,58.07
2018-07-14T03:48:25.568Z,58.28
2018-07-14T03:49:25.564Z,58.28
2018-07-14T03:50:25.552Z,58.18
2018-07-14T03:51:25.557Z,58.05
2018-07-14T03:52:25.590Z,58.18
2018-07-14T03:53:25.567Z,58.28
2018-07-14T03:54:25.577Z,57.98
2018-07-14T03:55:25.553Z,58.18
2018-07-14T03:56:25.553Z,57.98
2018-07-14T03:57:25.576Z,58.07
2018-07-14T03:58:25.561Z,58.28
2018-07-14T03:59:25.084Z,58.07
2018-07-14T04:00:25.076Z,58.07
2018-07-14T04:01:25.085Z,58.37
2018-07-14T04:02:25.071Z,58.37
2018-07-14T04:03:25.069Z,58.18
2018-07-14T04:04:25.080Z,58.07
2018-07-14T04:05:25.057Z,58.18
2018-07-14T04:06:25.109Z,58.18
2018-07-14T04:07:25.071Z,58.28
2018-07-14T04:08:25.073Z,58.28
2018-07-14T04:09:25.056Z,58.07
2018-07-14T04:10:25.056Z,58.11
2018-07-14T04:11:26.057Z,58.00
2018-07-14T04:12:25.067Z,57.98
2018-07-14T04:13:25.077Z,58.18
2018-07-14T04:14:25.068Z,58.58
2018-07-14T04:15:25.081Z,58.48
2018-07-14T04:16:25.089Z,58.18
2018-07-14T04:17:25.071Z,58.30
2018-07-14T04:18:25.073Z,58.07
2018-07-14T04:19:25.073Z,58.61
2018-07-14T04:20:25.088Z,58.18
2018-07-14T04:21:23.336Z,58.68
2018-07-14T04:22:25.062Z,58.48
2018-07-14T04:23:25.090Z,58.58
2018-07-14T04:24:26.068Z,58.37
2018-07-14T04:25:25.071Z,58.30
2018-07-14T04:26:25.071Z,58.30
2018-07-14T04:27:25.075Z,58.18
2018-07-14T04:28:25.078Z,58.18
2018-07-14T04:29:25.072Z,58.37
2018-07-14T04:30:25.068Z,58.40
2018-07-14T04:31:25.085Z,58.37
2018-07-14T04:32:23.222Z,58.18
2018-07-14T04:33:25.092Z,58.58
2018-07-14T04:34:25.071Z,58.78
2018-07-14T04:35:25.081Z,58.07
2018-07-14T04:36:25.061Z,58.48
2018-07-14T04:37:25.082Z,58.61
2018-07-14T04:38:25.097Z,58.07
2018-07-14T04:39:25.064Z,58.78
2018-07-14T04:40:25.066Z,58.40
2018-07-14T04:41:25.072Z,58.87
2018-07-14T04:42:25.112Z,58.28
2018-07-14T04:43:25.076Z,58.87
2018-07-14T04:44:24.591Z,58.61
2018-07-14T04:45:24.566Z,59.00
2018-07-14T04:46:24.564Z,58.58
2018-07-14T04:47:24.563Z,58.50
2018-07-14T04:48:24.567Z,59.00
2018-07-14T04:49:24.617Z,58.70
2018-07-14T04:50:24.564Z,58.98
2018-07-14T04:51:24.564Z,59.11
2018-07-14T04:52:24.565Z,58.61
2018-07-14T04:53:24.564Z,58.07
2018-07-14T04:54:24.581Z,58.58
2018-07-14T04:55:24.575Z,58.58
2018-07-14T04:56:24.586Z,58.37
2018-07-14T04:57:24.565Z,58.18
2018-07-14T04:58:24.566Z,58.61
2018-07-14T04:59:24.581Z,58.18
2018-07-14T05:00:22.904Z,58.07
2018-07-14T05:01:24.566Z,58.18
2018-07-14T05:02:24.604Z,58.30
2018-07-14T05:03:24.586Z,58.28
2018-07-14T05:04:24.584Z,58.30
2018-07-14T05:05:24.567Z,58.18
2018-07-14T05:06:24.610Z,58.18
2018-07-14T05:07:24.569Z,58.20
2018-07-14T05:08:24.569Z,58.40
2018-07-14T05:09:24.598Z,58.28
2018-07-14T05:10:24.600Z,58.07
2018-07-14T05:11:24.593Z,58.37
2018-07-14T05:12:24.577Z,58.18
2018-07-14T05:13:24.568Z,58.18
2018-07-14T05:14:31.639Z,58.28
2018-07-14T05:15:30.292Z,58.48
2018-07-14T05:16:24.655Z,58.48
2018-07-14T05:17:24.656Z,58.37
2018-07-14T05:18:24.638Z,58.37
2018-07-14T05:19:24.676Z,57.78
2018-07-14T05:20:24.666Z,58.28
2018-07-14T05:21:24.718Z,58.48
2018-07-14T05:22:24.660Z,58.48
2018-07-14T05:23:24.155Z,58.18
2018-07-14T05:24:24.156Z,58.18
2018-07-14T05:25:24.160Z,58.18
2018-07-14T05:26:24.154Z,57.98
2018-07-14T05:27:24.150Z,58.18
2018-07-14T05:28:24.168Z,57.55
2018-07-14T05:29:24.156Z,57.48
2018-07-14T05:30:24.161Z,57.75
2018-07-14T05:31:25.165Z,57.95
2018-07-14T05:32:24.146Z,57.65
2018-07-14T05:33:24.157Z,57.55
2018-07-14T05:34:24.158Z,57.65
2018-07-14T05:35:24.161Z,57.24
2018-07-14T05:36:24.147Z,57.45
2018-07-14T05:37:24.182Z,57.55
2018-07-14T05:38:24.154Z,57.55
2018-07-14T05:39:22.513Z,57.35
2018-07-14T05:40:24.145Z,57.15
2018-07-14T05:41:24.166Z,57.24
2018-07-14T05:42:24.151Z,57.55
2018-07-14T05:43:24.168Z,57.42
2018-07-14T05:44:24.145Z,57.72
2018-07-14T05:45:24.172Z,58.92
2018-07-14T05:46:24.143Z,59.19
2018-07-14T05:47:24.144Z,58.80
2018-07-14T05:48:24.143Z,58.17
2018-07-14T05:49:24.143Z,57.37
2018-07-14T05:50:24.174Z,56.94
2018-07-14T05:51:24.144Z,56.61
2018-07-14T05:52:24.143Z,56.61
2018-07-14T05:53:24.144Z,56.11
2018-07-14T05:54:24.148Z,56.68
2018-07-14T05:55:24.161Z,55.39
2018-07-14T05:56:24.171Z,55.79
2018-07-14T05:57:24.148Z,55.58
2018-07-14T05:58:24.146Z,55.58
2018-07-14T05:59:24.144Z,55.58
2018-07-14T06:00:24.163Z,56.09
2018-07-14T06:01:24.147Z,55.58
2018-07-14T06:02:25.152Z,56.26
2018-07-14T06:03:24.170Z,55.58
2018-07-14T06:04:24.146Z,55.36
2018-07-14T06:05:24.161Z,55.26
2018-07-14T06:06:30.990Z,55.79
2018-07-14T06:07:22.181Z,56.48
2018-07-14T06:08:23.691Z,56.26
2018-07-14T06:09:23.686Z,56.48
2018-07-14T06:10:23.704Z,56.29
2018-07-14T06:11:29.699Z,57.15
2018-07-14T06:12:23.719Z,56.66
2018-07-14T06:13:23.710Z,56.76
2018-07-14T06:14:23.738Z,56.76
2018-07-14T06:15:23.745Z,56.26
2018-07-14T06:16:24.721Z,55.96
2018-07-14T06:17:23.727Z,56.56
2018-07-14T06:18:24.738Z,56.26
2018-07-14T06:19:29.147Z,56.16
2018-07-14T06:20:23.811Z,56.26
2018-07-14T06:21:23.744Z,56.46
2018-07-14T06:22:23.761Z,56.96
2018-07-14T06:23:23.793Z,56.85
2018-07-14T06:24:23.744Z,56.76
2018-07-14T06:25:23.759Z,56.66
2018-07-14T06:26:23.761Z,56.56
2018-07-14T06:27:23.745Z,55.96
2018-07-14T06:28:23.745Z,56.76
2018-07-14T06:29:23.745Z,56.83
2018-07-14T06:30:23.760Z,56.46
2018-07-14T06:31:23.766Z,57.33
2018-07-14T06:32:23.754Z,57.26
2018-07-14T06:33:23.780Z,56.53
2018-07-14T06:34:21.896Z,57.43
2018-07-14T06:35:23.769Z,57.33
2018-07-14T06:36:23.769Z,56.33
2018-07-14T06:37:24.755Z,56.66
2018-07-14T06:38:23.955Z,56.53
2018-07-14T06:39:23.748Z,56.63
2018-07-14T06:40:23.777Z,57.03
2018-07-14T06:41:23.757Z,57.63
2018-07-14T06:42:23.768Z,57.53
2018-07-14T06:43:23.748Z,58.03
2018-07-14T06:44:23.748Z,57.63
2018-07-14T06:45:23.274Z,58.23
2018-07-14T06:46:23.253Z,57.82
2018-07-14T06:47:23.249Z,57.53
2018-07-14T06:48:23.249Z,57.43
2018-07-14T06:49:23.249Z,57.63
2018-07-14T06:50:21.723Z,57.73
2018-07-14T06:51:23.277Z,57.33
2018-07-14T06:52:23.271Z,57.33
2018-07-14T06:53:23.264Z,57.13
2018-07-14T06:54:23.322Z,56.53
2018-07-14T06:55:23.252Z,57.23
2018-07-14T06:56:23.274Z,57.23
2018-07-14T06:57:23.251Z,56.63
2018-07-14T06:58:23.253Z,57.23
2018-07-14T06:59:23.261Z,56.93
2018-07-14T07:00:23.291Z,57.23
2018-07-14T07:01:23.266Z,57.82
2018-07-14T07:02:23.251Z,57.43
2018-07-14T07:03:23.311Z,56.13
2018-07-14T07:04:23.252Z,57.80
2018-07-14T07:05:23.252Z,57.63
2018-07-14T07:06:23.230Z,59.02
2018-07-14T07:07:23.253Z,61.49
2018-07-14T07:08:23.257Z,61.69
2018-07-14T07:09:24.254Z,62.38
2018-07-14T07:10:23.261Z,62.48
2018-07-14T07:11:23.273Z,62.78
2018-07-14T07:12:23.255Z,62.08
2018-07-14T07:13:23.256Z,61.99
2018-07-14T07:14:23.255Z,62.38
2018-07-14T07:15:24.255Z,62.29
2018-07-14T07:16:23.270Z,62.18
2018-07-14T07:17:23.256Z,62.48
2018-07-14T07:18:23.255Z,62.08
2018-07-14T07:19:24.256Z,62.78
2018-07-14T07:20:23.256Z,61.88
2018-07-14T07:21:23.316Z,62.59
2018-07-14T07:22:21.354Z,62.18
2018-07-14T07:23:23.257Z,61.58
2018-07-14T07:24:24.260Z,60.79
2018-07-14T07:25:23.257Z,60.76
2018-07-14T07:26:23.276Z,60.76
2018-07-14T07:27:22.973Z,61.25
2018-07-14T07:28:23.258Z,60.86
2018-07-14T07:29:23.258Z,61.16
2018-07-14T07:30:22.758Z,61.55
2018-07-14T07:31:22.773Z,61.16
2018-07-14T07:32:22.758Z,61.16
2018-07-14T07:33:22.759Z,61.55
2018-07-14T07:34:22.759Z,61.06
2018-07-14T07:35:22.759Z,61.25
2018-07-14T07:36:22.774Z,60.96
2018-07-14T07:37:22.760Z,61.06
2018-07-14T07:38:22.760Z,61.06
2018-07-14T07:39:22.759Z,61.16
2018-07-14T07:40:22.760Z,61.25
2018-07-14T07:41:22.777Z,60.66
2018-07-14T07:42:22.790Z,60.56
2018-07-14T07:43:22.808Z,60.76
2018-07-14T07:44:22.761Z,60.76
2018-07-14T07:45:22.764Z,60.16
2018-07-14T07:46:22.777Z,58.67
2018-07-14T07:47:22.761Z,60.36
2018-07-14T07:48:22.765Z,60.66
2018-07-14T07:49:22.761Z,60.16
2018-07-14T07:50:23.767Z,60.36
2018-07-14T07:51:22.778Z,60.36
2018-07-14T07:52:22.762Z,59.96
2018-07-14T07:53:21.015Z,60.36
2018-07-14T07:54:22.763Z,59.27
2018-07-14T07:55:22.763Z,59.47
2018-07-14T07:56:22.778Z,59.86
2018-07-14T07:57:22.762Z,58.87
2018-07-14T07:58:22.763Z,58.87
2018-07-14T07:59:22.765Z,58.47
2018-07-14T08:00:22.771Z,58.47
2018-07-14T08:01:22.764Z,58.14
2018-07-14T08:02:22.780Z,58.04
2018-07-14T08:03:22.924Z,58.17
2018-07-14T08:04:22.764Z,57.64
2018-07-14T08:05:22.765Z,58.74
2018-07-14T08:06:22.766Z,58.47
2018-07-14T08:07:22.781Z,57.97
2018-07-14T08:08:22.766Z,56.65
2018-07-14T08:09:22.767Z,56.98
2018-07-14T08:10:22.768Z,56.75
2018-07-14T08:11:22.766Z,57.15
2018-07-14T08:12:22.781Z,57.35
2018-07-14T08:13:22.768Z,57.24
2018-07-14T08:14:22.766Z,56.65
2018-07-14T08:15:22.767Z,56.25
2018-07-14T08:16:22.267Z,57.24
2018-07-14T08:17:22.282Z,57.35
2018-07-14T08:18:22.267Z,58.04
2018-07-14T08:19:20.736Z,58.24
2018-07-14T08:20:22.269Z,57.75
2018-07-14T08:21:22.269Z,57.64
2018-07-14T08:22:22.283Z,57.94
2018-07-14T08:23:22.273Z,58.14
2018-07-14T08:24:22.269Z,57.75
2018-07-14T08:25:22.273Z,58.44
2018-07-14T08:26:22.269Z,57.75
2018-07-14T08:27:22.286Z,57.84
2018-07-14T08:28:22.270Z,58.14
2018-07-14T08:29:22.271Z,57.45
2018-07-14T08:30:22.270Z,57.94
2018-07-14T08:31:22.270Z,57.94
2018-07-14T08:32:22.310Z,57.35
2018-07-14T08:33:22.271Z,57.45
2018-07-14T08:34:22.271Z,57.75
2018-07-14T08:35:22.271Z,57.35
2018-07-14T08:36:22.272Z,57.15
2018-07-14T08:37:22.288Z,57.84
2018-07-14T08:38:22.272Z,58.01
2018-07-14T08:39:22.275Z,58.24
2018-07-14T08:40:22.273Z,58.84
2018-07-14T08:41:22.272Z,57.75
2018-07-14T08:42:22.288Z,57.45
2018-07-14T08:43:22.273Z,57.84
2018-07-14T08:44:22.273Z,58.22
2018-07-14T08:45:22.277Z,58.34
2018-07-14T08:46:22.277Z,57.24
2018-07-14T08:47:22.290Z,56.42
2018-07-14T08:48:22.274Z,57.52
2018-07-14T08:49:22.276Z,57.62
2018-07-14T08:50:22.313Z,56.92
2018-07-14T08:51:22.302Z,57.71
2018-07-14T08:52:22.289Z,57.12
2018-07-14T08:53:22.275Z,57.32
2018-07-14T08:54:22.290Z,58.22
2018-07-14T08:55:22.278Z,57.12
2018-07-14T08:56:21.286Z,57.22
2018-07-14T08:57:22.283Z,57.22
2018-07-14T08:58:22.294Z,56.92
2018-07-14T08:59:22.277Z,57.22
2018-07-14T09:00:22.277Z,57.32
2018-07-14T09:01:22.277Z,57.12
2018-07-14T09:02:21.777Z,58.01
2018-07-14T09:03:21.793Z,57.42
2018-07-14T09:04:21.785Z,57.71
2018-07-14T09:05:21.778Z,57.71
2018-07-14T09:06:21.779Z,58.22
2018-07-14T09:07:20.223Z,57.71
2018-07-14T09:08:21.794Z,57.82
2018-07-14T09:09:21.781Z,56.92
2018-07-14T09:10:21.778Z,57.82
2018-07-14T09:11:21.778Z,57.42
2018-07-14T09:12:21.810Z,57.92
2018-07-14T09:13:21.795Z,58.01
2018-07-14T09:14:21.780Z,57.89
2018-07-14T09:15:21.779Z,58.11
2018-07-14T09:16:21.828Z,57.19
2018-07-14T09:17:21.780Z,57.09
2018-07-14T09:18:21.794Z,58.51
2018-07-14T09:19:21.781Z,57.69
2018-07-14T09:20:21.781Z,57.09
2018-07-14T09:21:21.782Z,56.99
2018-07-14T09:22:21.782Z,57.49
2018-07-14T09:23:21.797Z,58.48
2018-07-14T09:24:21.782Z,58.69
2018-07-14T09:25:21.782Z,57.59
2018-07-14T09:26:21.783Z,58.18
2018-07-14T09:27:21.783Z,57.59
2018-07-14T09:28:20.007Z,57.09
2018-07-14T09:29:21.784Z,57.59
2018-07-14T09:30:21.786Z,57.79
2018-07-14T09:31:21.784Z,57.69
2018-07-14T09:32:21.784Z,57.09
2018-07-14T09:33:21.801Z,57.19
2018-07-14T09:34:21.785Z,57.19
2018-07-14T09:35:21.785Z,57.69
2018-07-14T09:36:21.785Z,56.40
2018-07-14T09:37:21.785Z,57.19
2018-07-14T09:38:21.786Z,57.29
2018-07-14T09:39:21.800Z,57.59
2018-07-14T09:40:21.786Z,57.46
2018-07-14T09:41:21.785Z,57.79
2018-07-14T09:42:21.785Z,57.26
2018-07-14T09:43:21.787Z,56.89
2018-07-14T09:44:19.835Z,56.70
2018-07-14T09:45:21.787Z,57.29
2018-07-14T09:46:21.790Z,56.77
2018-07-14T09:47:21.287Z,56.57
2018-07-14T09:48:21.287Z,56.67
2018-07-14T09:49:21.303Z,56.37
2018-07-14T09:50:21.288Z,56.67
2018-07-14T09:51:21.288Z,56.37
2018-07-14T09:52:21.288Z,56.57
2018-07-14T09:53:21.288Z,56.37
2018-07-14T09:54:21.304Z,56.77
2018-07-14T09:55:21.361Z,56.47
2018-07-14T09:56:21.289Z,56.67
2018-07-14T09:57:21.294Z,57.36
2018-07-14T09:58:21.291Z,57.24
2018-07-14T09:59:21.305Z,56.94
2018-07-14T10:00:19.646Z,56.37
2018-07-14T10:01:21.290Z,56.57
2018-07-14T10:02:21.290Z,56.24
2018-07-14T10:03:21.296Z,56.57
2018-07-14T10:04:21.308Z,56.84
2018-07-14T10:05:21.291Z,56.74
2018-07-14T10:06:21.292Z,56.64
2018-07-14T10:07:21.292Z,55.94
2018-07-14T10:08:21.296Z,56.14
2018-07-14T10:09:21.308Z,56.54
2018-07-14T10:10:21.293Z,56.24
2018-07-14T10:11:21.292Z,56.04
2018-07-14T10:12:21.293Z,56.61
2018-07-14T10:13:21.293Z,56.54
2018-07-14T10:14:21.308Z,56.41
2018-07-14T10:15:21.294Z,56.44
2018-07-14T10:16:19.474Z,56.61
2018-07-14T10:17:21.370Z,56.41
2018-07-14T10:18:21.294Z,56.41
2018-07-14T10:19:21.311Z,56.02
2018-07-14T10:20:21.294Z,56.02
2018-07-14T10:21:22.295Z,55.82
2018-07-14T10:22:21.431Z,55.69
2018-07-14T10:23:21.294Z,55.89
2018-07-14T10:24:21.314Z,56.29
2018-07-14T10:25:21.534Z,56.29
2018-07-14T10:26:21.296Z,56.19
2018-07-14T10:27:21.296Z,55.10
2018-07-14T10:28:21.296Z,55.00
2018-07-14T10:29:21.313Z,54.90
2018-07-14T10:30:21.297Z,54.80
2018-07-14T10:31:21.296Z,55.40
2018-07-14T10:32:20.797Z,55.36
2018-07-14T10:33:20.798Z,54.57
2018-07-14T10:34:20.814Z,54.47
2018-07-14T10:35:20.798Z,54.08
2018-07-14T10:36:20.798Z,53.45
2018-07-14T10:37:19.977Z,53.06
2018-07-14T10:38:20.799Z,52.37
2018-07-14T10:39:20.814Z,52.07
2018-07-14T10:40:20.799Z,51.75
2018-07-14T10:41:21.873Z,50.95
2018-07-14T10:42:20.808Z,50.95
2018-07-14T10:43:20.800Z,50.26
2018-07-14T10:44:20.815Z,49.27
2018-07-14T10:45:20.800Z,48.57
2018-07-14T10:46:20.801Z,48.65
2018-07-14T10:47:20.801Z,48.15
2018-07-14T10:48:20.802Z,48.25
2018-07-14T10:49:20.817Z,47.75
2018-07-14T10:50:20.802Z,47.83
2018-07-14T10:51:20.805Z,47.83
2018-07-14T10:52:20.802Z,47.61
2018-07-14T10:53:20.803Z,47.91
2018-07-14T10:54:20.820Z,46.12
2018-07-14T10:55:20.803Z,47.02
2018-07-14T10:56:20.803Z,45.61
2018-07-14T10:57:20.804Z,45.79
2018-07-14T10:58:20.804Z,45.89
2018-07-14T10:59:19.029Z,45.39
2018-07-14T11:00:20.804Z,45.76
2018-07-14T11:01:20.807Z,46.55
2018-07-14T11:02:20.805Z,45.64
2018-07-14T11:03:20.805Z,44.56
2018-07-14T11:04:20.855Z,44.75
2018-07-14T11:05:20.809Z,44.36
2018-07-14T11:06:20.810Z,44.06
2018-07-14T11:07:21.871Z,44.04
2018-07-14T11:08:29.659Z,43.74
2018-07-14T11:09:18.909Z,43.94
2018-07-14T11:10:18.913Z,43.55
2018-07-14T11:11:18.889Z,42.85
2018-07-14T11:12:18.877Z,43.15
2018-07-14T11:13:18.866Z,42.54
2018-07-14T11:14:18.856Z,42.05
2018-07-14T11:15:18.861Z,42.54
2018-07-14T11:16:18.837Z,41.73
2018-07-14T11:17:18.826Z,41.83
2018-07-14T11:18:18.817Z,40.56
2018-07-14T11:19:20.336Z,41.95
2018-07-14T11:20:20.352Z,41.63
2018-07-14T11:21:20.337Z,41.83
2018-07-14T11:22:20.337Z,43.13
2018-07-14T11:23:20.337Z,42.83
2018-07-14T11:24:20.337Z,42.74
2018-07-14T11:25:20.353Z,43.45
2018-07-14T11:26:20.338Z,43.84
2018-07-14T11:27:20.338Z,43.84
2018-07-14T11:28:20.338Z,44.24
2018-07-14T11:29:20.340Z,44.26
2018-07-14T11:30:20.451Z,43.47
2018-07-14T11:31:20.340Z,45.05
2018-07-14T11:32:20.339Z,44.87
2018-07-14T11:33:20.340Z,44.97
2018-07-14T11:34:20.340Z,45.37
2018-07-14T11:35:20.356Z,45.67
2018-07-14T11:36:20.341Z,45.39
2018-07-14T11:37:18.618Z,45.39
2018-07-14T11:38:20.341Z,45.39
2018-07-14T11:39:20.342Z,45.59
2018-07-14T11:40:20.357Z,45.98
2018-07-14T11:41:20.348Z,46.08
2018-07-14T11:42:20.347Z,45.59
2018-07-14T11:43:21.343Z,45.98
2018-07-14T11:44:20.345Z,45.89
2018-07-14T11:45:20.359Z,45.59
2018-07-14T11:46:20.345Z,45.68
2018-07-14T11:47:20.346Z,45.29
2018-07-14T11:48:18.503Z,45.79
2018-07-14T11:49:20.345Z,45.89
2018-07-14T11:50:20.364Z,45.59
2018-07-14T11:51:20.346Z,45.89
2018-07-14T11:52:20.346Z,45.81
2018-07-14T11:53:20.346Z,46.48
2018-07-14T11:54:20.358Z,45.98
2018-07-14T11:55:20.347Z,46.38
2018-07-14T11:56:20.365Z,46.08
2018-07-14T11:57:20.347Z,44.60
2018-07-14T11:58:20.348Z,44.60
2018-07-14T11:59:18.386Z,44.90
2018-07-14T12:00:20.348Z,45.39
2018-07-14T12:01:20.421Z,44.32
2018-07-14T12:02:20.853Z,44.10
2018-07-14T12:03:20.851Z,45.29
2018-07-14T12:04:19.850Z,44.72
2018-07-14T12:05:19.880Z,45.31
2018-07-14T12:06:19.872Z,46.11
2018-07-14T12:07:20.906Z,43.93
2018-07-14T12:08:19.874Z,43.43
2018-07-14T12:09:19.876Z,43.51
2018-07-14T12:10:19.870Z,43.61
2018-07-14T12:11:19.867Z,44.31
2018-07-14T12:12:19.871Z,45.00
2018-07-14T12:13:19.886Z,45.00
2018-07-14T12:14:19.853Z,44.31
2018-07-14T12:15:19.854Z,45.09
2018-07-14T12:16:19.869Z,44.80
2018-07-14T12:17:19.856Z,45.19
2018-07-14T12:18:19.862Z,44.60
2018-07-14T12:19:19.854Z,45.51
2018-07-14T12:20:19.855Z,45.21
2018-07-14T12:21:19.871Z,44.23
2018-07-14T12:22:19.910Z,44.72
2018-07-14T12:23:19.856Z,45.31
2018-07-14T12:24:19.856Z,45.81
2018-07-14T12:25:19.858Z,45.81
2018-07-14T12:26:19.873Z,45.04
2018-07-14T12:27:19.858Z,46.11
2018-07-14T12:28:19.857Z,45.63
2018-07-14T12:29:19.858Z,45.71
2018-07-14T12:30:19.947Z,45.04
2018-07-14T12:31:19.878Z,44.64
2018-07-14T12:32:19.859Z,45.83
2018-07-14T12:33:19.860Z,45.83
2018-07-14T12:34:19.859Z,45.83
2018-07-14T12:35:19.863Z,45.83
2018-07-14T12:36:19.875Z,46.23
2018-07-14T12:37:19.863Z,45.34
2018-07-14T12:38:19.860Z,45.34
2018-07-14T12:39:19.863Z,44.74
2018-07-14T12:40:19.862Z,44.84
2018-07-14T12:41:19.861Z,44.94
2018-07-14T12:42:17.945Z,45.73
2018-07-14T12:43:19.866Z,45.73
2018-07-14T12:44:19.863Z,45.26
2018-07-14T12:45:19.862Z,45.56
2018-07-14T12:46:19.862Z,46.23
2018-07-14T12:47:19.380Z,45.73
2018-07-14T12:48:19.363Z,45.06
2018-07-14T12:49:19.364Z,45.45
2018-07-14T12:50:19.368Z,45.56
2018-07-14T12:51:19.364Z,45.36
2018-07-14T12:52:19.379Z,45.26